sensor_id;sensor_type;location;lat;lon;timestamp;pressure;altitude;pressure_sealevel;temperature;humidity
71970;BME280;59838;52.152;5.436;2023-08-06T00:00:26;100519.22;;;14.34;100.00
71970;BME280;59838;52.152;5.436;2023-08-06T00:02:52;100529.25;;;14.37;100.00
71970;BME280;59838;52.152;5.436;2023-08-06T00:05:19;100521.63;;;14.36;100.00
71970;BME280;59838;52.152;5.436;2023-08-06T00:07:48;100523.22;;;14.37;100.00
71970;BME280;59838;52.152;5.436;2023-08-06T00:10:15;100526.47;;;14.32;100.00
71970;BME280;59838;52.152;5.436;2023-08-06T00:12:42;100524.28;;;14.29;100.00
71970;BME280;59838;52.152;5.436;2023-08-06T00:15:09;100519.06;;;14.29;100.00
71970;BME280;59838;52.152;5.436;2023-08-06T00:17:36;100517.44;;;14.28;100.00
71970;BME280;59838;52.152;5.436;2023-08-06T00:20:04;100521.88;;;14.27;100.00
71970;BME280;59838;52.152;5.436;2023-08-06T00:22:35;100519.84;;;14.30;100.00
71970;BME280;59838;52.152;5.436;2023-08-06T00:25:02;100520.63;;;14.30;100.00
71970;BME280;59838;52.152;5.436;2023-08-06T00:27:29;100517.03;;;14.31;100.00
71970;BME280;59838;52.152;5.436;2023-08-06T00:29:56;100515.81;;;14.34;100.00
71970;BME280;59838;52.152;5.436;2023-08-06T00:32:22;100516.81;;;14.33;100.00
71970;BME280;59838;52.152;5.436;2023-08-06T00:34:49;100510.78;;;14.32;100.00
71970;BME280;59838;52.152;5.436;2023-08-06T00:37:16;100516.81;;;14.33;100.00
71970;BME280;59838;52.152;5.436;2023-08-06T00:39:43;100515.00;;;14.33;100.00
71970;BME280;59838;52.152;5.436;2023-08-06T00:42:13;100512.38;;;14.33;100.00
71970;BME280;59838;52.152;5.436;2023-08-06T00:44:39;100515.81;;;14.34;100.00
71970;BME280;59838;52.152;5.436;2023-08-06T00:47:07;100513.19;;;14.34;100.00
71970;BME280;59838;52.152;5.436;2023-08-06T00:49:35;100515.81;;;14.34;100.00
71970;BME280;59838;52.152;5.436;2023-08-06T00:52:04;100515.81;;;14.34;100.00
71970;BME280;59838;52.152;5.436;2023-08-06T00:54:31;100512.59;;;14.32;100.00
71970;BME280;59838;52.152;5.436;2023-08-06T00:56:59;100512.81;;;14.30;100.00
71970;BME280;59838;52.152;5.436;2023-08-06T00:59:28;100516.25;;;14.31;100.00
71970;BME280;59838;52.152;5.436;2023-08-06T01:01:56;100510.19;;;14.30;100.00
71970;BME280;59838;52.152;5.436;2023-08-06T01:04:23;100510.44;;;14.29;100.00
71970;BME280;59838;52.152;5.436;2023-08-06T01:09:53;100509.19;;;14.31;100.00
71970;BME280;59838;52.152;5.436;2023-08-06T01:12:55;100516.25;;;14.31;100.00
71970;BME280;59838;52.152;5.436;2023-08-06T01:15:32;100508.41;;;14.31;100.00
71970;BME280;59838;52.152;5.436;2023-08-06T01:17:59;100503.97;;;14.31;100.00
71970;BME280;59838;52.152;5.436;2023-08-06T01:20:30;100507.38;;;14.32;100.00
71970;BME280;59838;52.152;5.436;2023-08-06T01:22:57;100501.34;;;14.31;100.00
71970;BME280;59838;52.152;5.436;2023-08-06T01:25:30;100504.97;;;14.30;100.00
71970;BME280;59838;52.152;5.436;2023-08-06T01:28:04;100508.41;;;14.31;100.00
71970;BME280;59838;52.152;5.436;2023-08-06T01:30:38;100506.78;;;14.30;100.00
71970;BME280;59838;52.152;5.436;2023-08-06T01:33:10;100508.59;;;14.29;100.00
71970;BME280;59838;52.152;5.436;2023-08-06T01:35:39;100506.56;;;14.31;100.00
71970;BME280;59838;52.152;5.436;2023-08-06T01:38:07;100512.00;;;14.30;100.00
71970;BME280;59838;52.152;5.436;2023-08-06T01:40:33;100508.59;;;14.29;100.00
71970;BME280;59838;52.152;5.436;2023-08-06T01:43:01;100504.38;;;14.28;100.00
71970;BME280;59838;52.152;5.436;2023-08-06T01:45:27;100503.16;;;14.31;100.00
71970;BME280;59838;52.152;5.436;2023-08-06T01:47:54;100503.38;;;14.29;100.00
71970;BME280;59838;52.152;5.436;2023-08-06T01:50:20;100507.56;;;14.30;100.00
71970;BME280;59838;52.152;5.436;2023-08-06T01:52:47;100511.00;;;14.31;100.00
71970;BME280;59838;52.152;5.436;2023-08-06T01:55:13;100513.41;;;14.32;100.00
71970;BME280;59838;52.152;5.436;2023-08-06T01:57:40;100515.00;;;14.33;100.00
71970;BME280;59838;52.152;5.436;2023-08-06T02:00:07;100520.22;;;14.33;100.00
71970;BME280;59838;52.152;5.436;2023-08-06T02:02:33;100515.00;;;14.33;100.00
71970;BME280;59838;52.152;5.436;2023-08-06T02:05:00;100509.75;;;14.33;100.00
71970;BME280;59838;52.152;5.436;2023-08-06T02:07:26;100515.00;;;14.33;100.00
71970;BME280;59838;52.152;5.436;2023-08-06T02:09:53;100514.19;;;14.33;100.00
71970;BME280;59838;52.152;5.436;2023-08-06T02:12:19;100517.81;;;14.32;100.00
71970;BME280;59838;52.152;5.436;2023-08-06T02:14:46;100515.41;;;14.30;100.00
71970;BME280;59838;52.152;5.436;2023-08-06T02:17:12;100510.44;;;14.29;100.00
71970;BME280;59838;52.152;5.436;2023-08-06T02:19:39;100515.88;;;14.27;100.00
71970;BME280;59838;52.152;5.436;2023-08-06T02:22:05;100524.72;;;14.26;100.00
71970;BME280;59838;52.152;5.436;2023-08-06T02:24:32;100515.25;;;14.25;100.00
71970;BME280;59838;52.152;5.436;2023-08-06T02:26:59;100514.47;;;14.24;100.00
71970;BME280;59838;52.152;5.436;2023-08-06T02:29:25;100512.88;;;14.23;100.00
71970;BME280;59838;52.152;5.436;2023-08-06T02:31:52;100512.88;;;14.23;100.00
71970;BME280;59838;52.152;5.436;2023-08-06T02:34:19;100509.25;;;14.24;100.00
71970;BME280;59838;52.152;5.436;2023-08-06T02:36:45;100506.63;;;14.24;100.00
71970;BME280;59838;52.152;5.436;2023-08-06T02:39:12;100512.66;;;14.25;100.00
71970;BME280;59838;52.152;5.436;2023-08-06T02:41:38;100511.88;;;14.24;100.00
71970;BME280;59838;52.152;5.436;2023-08-06T02:44:05;100514.47;;;14.24;100.00
71970;BME280;59838;52.152;5.436;2023-08-06T02:46:31;100499.81;;;14.23;100.00
71970;BME280;59838;52.152;5.436;2023-08-06T02:48:58;100506.06;;;14.22;100.00
71970;BME280;59838;52.152;5.436;2023-08-06T02:51:24;100504.25;;;14.23;100.00
71970;BME280;59838;52.152;5.436;2023-08-06T02:53:51;100500.00;;;14.22;100.00
71970;BME280;59838;52.152;5.436;2023-08-06T02:56:17;100499.81;;;14.23;100.00
71970;BME280;59838;52.152;5.436;2023-08-06T02:58:44;100498.78;;;14.24;100.00
71970;BME280;59838;52.152;5.436;2023-08-06T03:01:10;100506.63;;;14.24;100.00
71970;BME280;59838;52.152;5.436;2023-08-06T03:03:37;100497.19;;;14.23;100.00
71970;BME280;59838;52.152;5.436;2023-08-06T03:06:03;100493.78;;;14.23;100.00
71970;BME280;59838;52.152;5.436;2023-08-06T03:08:30;100490.16;;;14.24;100.00
71970;BME280;59838;52.152;5.436;2023-08-06T03:10:56;100485.72;;;14.24;100.00
71970;BME280;59838;52.152;5.436;2023-08-06T03:13:23;100489.13;;;14.25;100.00
71970;BME280;59838;52.152;5.436;2023-08-06T03:15:58;100489.13;;;14.25;100.00
71970;BME280;59838;52.152;5.436;2023-08-06T03:18:25;100484.94;;;14.24;100.00
71970;BME280;59838;52.152;5.436;2023-08-06T03:20:55;100489.34;;;14.23;100.00
71970;BME280;59838;52.152;5.436;2023-08-06T03:23:21;100491.38;;;14.21;100.00
71970;BME280;59838;52.152;5.436;2023-08-06T03:25:48;100493.22;;;14.21;100.00
71970;BME280;59838;52.152;5.436;2023-08-06T03:28:14;100494.22;;;14.20;100.00
71970;BME280;59838;52.152;5.436;2023-08-06T03:30:41;100492.84;;;14.17;100.00
71970;BME280;59838;52.152;5.436;2023-08-06T03:33:07;100487.63;;;14.17;100.00
71970;BME280;59838;52.152;5.436;2023-08-06T03:35:34;100493.06;;;14.16;100.00
71970;BME280;59838;52.152;5.436;2023-08-06T03:38:00;100493.06;;;14.16;100.00
71970;BME280;59838;52.152;5.436;2023-08-06T03:40:26;100485.66;;;14.13;100.00
71970;BME280;59838;52.152;5.436;2023-08-06T03:42:55;100488.25;;;14.13;100.00
71970;BME280;59838;52.152;5.436;2023-08-06T03:45:21;100489.25;;;14.12;100.00
71970;BME280;59838;52.152;5.436;2023-08-06T03:47:48;100489.25;;;14.12;100.00
71970;BME280;59838;52.152;5.436;2023-08-06T03:50:14;100494.47;;;14.12;100.00
71970;BME280;59838;52.152;5.436;2023-08-06T03:52:41;100498.09;;;14.11;100.00
71970;BME280;59838;52.152;5.436;2023-08-06T03:55:07;100499.91;;;14.10;100.00
71970;BME280;59838;52.152;5.436;2023-08-06T03:57:34;100491.88;;;14.12;100.00
71970;BME280;59838;52.152;5.436;2023-08-06T04:00:01;100501.09;;;14.14;100.00
71970;BME280;59838;52.152;5.436;2023-08-06T04:02:27;100497.47;;;14.15;100.00
71970;BME280;59838;52.152;5.436;2023-08-06T04:04:54;100495.66;;;14.16;100.00
71970;BME280;59838;52.152;5.436;2023-08-06T04:07:20;100495.88;;;14.14;100.00
71970;BME280;59838;52.152;5.436;2023-08-06T04:09:52;100491.22;;;14.16;100.00
71970;BME280;59838;52.152;5.436;2023-08-06T04:12:19;100494.63;;;14.17;100.00
71970;BME280;59838;52.152;5.436;2023-08-06T04:14:48;100491.03;;;14.18;100.00
71970;BME280;59838;52.152;5.436;2023-08-06T04:17:14;100497.81;;;14.19;100.00
71970;BME280;59838;52.152;5.436;2023-08-06T04:19:41;100491.59;;;14.20;100.00
71970;BME280;59838;52.152;5.436;2023-08-06T04:22:07;100489.00;;;14.20;100.00
71970;BME280;59838;52.152;5.436;2023-08-06T04:24:34;100491.19;;;14.23;100.00
71970;BME280;59838;52.152;5.436;2023-08-06T04:27:00;100495.19;;;14.25;100.00
71970;BME280;59838;52.152;5.436;2023-08-06T04:29:27;100490.53;;;14.27;100.00
71970;BME280;59838;52.152;5.436;2023-08-06T04:31:53;100503.59;;;14.27;100.00
71970;BME280;59838;52.152;5.436;2023-08-06T04:34:20;100504.38;;;14.28;100.00
71970;BME280;59838;52.152;5.436;2023-08-06T04:36:46;100505.78;;;14.31;100.00
71970;BME280;59838;52.152;5.436;2023-08-06T04:39:13;100503.75;;;14.33;100.00
71970;BME280;59838;52.152;5.436;2023-08-06T04:41:40;100510.59;;;14.34;100.00
71970;BME280;59838;52.152;5.436;2023-08-06T04:44:06;100510.38;;;14.35;100.00
71970;BME280;59838;52.152;5.436;2023-08-06T04:46:33;100514.13;;;14.39;100.00
71970;BME280;59838;52.152;5.436;2023-08-06T04:48:59;100515.53;;;14.42;100.00
71970;BME280;59838;52.152;5.436;2023-08-06T04:51:26;100518.28;;;14.47;100.00
71970;BME280;59838;52.152;5.436;2023-08-06T04:53:52;100523.25;;;14.55;100.00
71970;BME280;59838;52.152;5.436;2023-08-06T04:56:19;100516.59;;;14.59;100.00
71970;BME280;59838;52.152;5.436;2023-08-06T04:58:45;100519.59;;;14.63;100.00
71970;BME280;59838;52.152;5.436;2023-08-06T05:01:12;100522.56;;;14.67;100.00
71970;BME280;59838;52.152;5.436;2023-08-06T05:03:38;100524.31;;;14.73;100.00
71970;BME280;59838;52.152;5.436;2023-08-06T05:06:05;100515.44;;;14.74;100.00
71970;BME280;59838;52.152;5.436;2023-08-06T05:08:31;100517.03;;;14.75;100.00
71970;BME280;59838;52.152;5.436;2023-08-06T05:10:58;100527.28;;;14.76;100.00
71970;BME280;59838;52.152;5.436;2023-08-06T05:13:24;100530.31;;;14.73;100.00
71970;BME280;59838;52.152;5.436;2023-08-06T05:15:53;100526.69;;;14.74;100.00
71970;BME280;59838;52.152;5.436;2023-08-06T05:18:20;100531.94;;;14.74;100.00
71970;BME280;59838;52.152;5.436;2023-08-06T05:20:47;100542.81;;;14.71;100.00
71970;BME280;59838;52.152;5.436;2023-08-06T05:23:13;100544.03;;;14.69;100.00
71970;BME280;59838;52.152;5.436;2023-08-06T05:25:40;100548.28;;;14.70;100.00
71970;BME280;59838;52.152;5.436;2023-08-06T05:28:07;100550.88;;;14.70;100.00
71970;BME280;59838;52.152;5.436;2023-08-06T05:30:33;100550.09;;;14.69;100.00
71970;BME280;59838;52.152;5.436;2023-08-06T05:33:00;100553.72;;;14.68;100.00
71970;BME280;59838;52.152;5.436;2023-08-06T05:35:26;100559.72;;;14.69;100.00
71970;BME280;59838;52.152;5.436;2023-08-06T05:37:53;100554.50;;;14.69;100.00
71970;BME280;59838;52.152;5.436;2023-08-06T05:40:19;100555.69;;;14.73;100.00
71970;BME280;59838;52.152;5.436;2023-08-06T05:42:46;100563.53;;;14.73;100.00
71970;BME280;59838;52.152;5.436;2023-08-06T05:45:12;100568.97;;;14.71;100.00
71970;BME280;59838;52.152;5.436;2023-08-06T05:47:39;100566.94;;;14.73;100.00
71970;BME280;59838;52.152;5.436;2023-08-06T05:50:06;100567.50;;;14.75;100.00
71970;BME280;59838;52.152;5.436;2023-08-06T05:52:33;100573.56;;;14.76;100.00
71970;BME280;59838;52.152;5.436;2023-08-06T05:54:59;100572.75;;;14.75;100.00
71970;BME280;59838;52.152;5.436;2023-08-06T05:57:25;100574.13;;;14.78;100.00
71970;BME280;59838;52.152;5.436;2023-08-06T05:59:52;100575.53;;;14.80;100.00
71970;BME280;59838;52.152;5.436;2023-08-06T06:02:18;100579.28;;;14.85;100.00
71970;BME280;59838;52.152;5.436;2023-08-06T06:04:45;100585.31;;;14.85;100.00
71970;BME280;59838;52.152;5.436;2023-08-06T06:07:11;100580.69;;;14.87;100.00
71970;BME280;59838;52.152;5.436;2023-08-06T06:09:38;100597.53;;;14.91;100.00
71970;BME280;59838;52.152;5.436;2023-08-06T06:12:06;100588.31;;;14.89;100.00
71970;BME280;59838;52.152;5.436;2023-08-06T06:14:33;100594.13;;;14.91;100.00
71970;BME280;59838;52.152;5.436;2023-08-06T06:16:59;100602.53;;;14.93;100.00
71970;BME280;59838;52.152;5.436;2023-08-06T06:19:26;100601.31;;;14.95;100.00
71970;BME280;59838;52.152;5.436;2023-08-06T06:21:54;100603.13;;;14.95;100.00
71970;BME280;59838;52.152;5.436;2023-08-06T06:24:24;100604.16;;;14.94;100.00
71970;BME280;59838;52.152;5.436;2023-08-06T06:26:50;100602.34;;;14.94;100.00
71970;BME280;59838;52.152;5.436;2023-08-06T06:29:17;100602.53;;;14.93;100.00
71970;BME280;59838;52.152;5.436;2023-08-06T06:31:43;100611.56;;;14.97;100.00
71970;BME280;59838;52.152;5.436;2023-08-06T06:34:10;100615.41;;;14.94;100.00
71970;BME280;59838;52.152;5.436;2023-08-06T06:36:36;100612.59;;;14.96;100.00
71970;BME280;59838;52.152;5.436;2023-08-06T06:39:03;100622.03;;;14.97;100.00
71970;BME280;59838;52.152;5.436;2023-08-06T06:41:29;100617.66;;;14.91;100.00
71970;BME280;59838;52.152;5.436;2023-08-06T06:43:58;100617.25;;;14.94;100.00
71970;BME280;59838;52.152;5.436;2023-08-06T06:46:25;100620.22;;;14.97;100.00
71970;BME280;59838;52.152;5.436;2023-08-06T06:48:52;100630.69;;;14.97;100.00
71970;BME280;59838;52.152;5.436;2023-08-06T06:51:18;100622.63;;;14.99;100.00
71970;BME280;59838;52.152;5.436;2023-08-06T06:53:45;100630.47;;;14.99;100.00
71970;BME280;59838;52.152;5.436;2023-08-06T06:56:11;100629.06;;;14.96;100.00
71970;BME280;59838;52.152;5.436;2023-08-06T06:58:38;100630.59;;;15.04;100.00
71970;BME280;59838;52.152;5.436;2023-08-06T07:01:05;100626.97;;;15.05;100.00
71970;BME280;59838;52.152;5.436;2023-08-06T07:03:32;100626.97;;;15.05;100.00
71970;BME280;59838;52.152;5.436;2023-08-06T07:05:59;100634.63;;;15.07;100.00
71970;BME280;59838;52.152;5.436;2023-08-06T07:08:25;100631.34;;;15.11;100.00
71970;BME280;59838;52.152;5.436;2023-08-06T07:11:00;100630.84;;;15.21;100.00
71970;BME280;59838;52.152;5.436;2023-08-06T07:13:27;100636.22;;;15.26;100.00
71970;BME280;59838;52.152;5.436;2023-08-06T07:15:54;100623.28;;;15.31;100.00
71970;BME280;59838;52.152;5.436;2023-08-06T07:18:22;100626.25;;;15.35;100.00
71970;BME280;59838;52.152;5.436;2023-08-06T07:20:52;100629.00;;;15.40;100.00
71970;BME280;59838;52.152;5.436;2023-08-06T07:23:24;100630.44;;;15.54;100.00
71970;BME280;59838;52.152;5.436;2023-08-06T07:25:50;100634.03;;;15.60;100.00
71970;BME280;59838;52.152;5.436;2023-08-06T07:28:17;100640.84;;;15.61;100.00
71970;BME280;59838;52.152;5.436;2023-08-06T07:30:44;100635.97;;;15.65;100.00
71970;BME280;59838;52.152;5.436;2023-08-06T07:33:11;100645.19;;;15.67;100.00
71970;BME280;59838;52.152;5.436;2023-08-06T07:35:38;100643.53;;;15.73;100.00
71970;BME280;59838;52.152;5.436;2023-08-06T07:38:05;100641.28;;;15.77;100.00
71970;BME280;59838;52.152;5.436;2023-08-06T07:40:31;100652.13;;;15.80;100.00
71970;BME280;59838;52.152;5.436;2023-08-06T07:42:58;100641.66;;;15.80;100.00
71970;BME280;59838;52.152;5.436;2023-08-06T07:45:24;100650.06;;;15.82;100.00
71970;BME280;59838;52.152;5.436;2023-08-06T07:47:53;100652.25;;;15.85;100.00
71970;BME280;59838;52.152;5.436;2023-08-06T07:50:19;100648.84;;;15.85;100.00
71970;BME280;59838;52.152;5.436;2023-08-06T07:52:46;100653.06;;;15.86;100.00
71970;BME280;59838;52.152;5.436;2023-08-06T07:55:12;100655.59;;;15.93;100.00
71970;BME280;59838;52.152;5.436;2023-08-06T07:57:39;100648.41;;;15.88;100.00
71970;BME280;59838;52.152;5.436;2023-08-06T08:00:06;100657.63;;;15.90;100.00
71970;BME280;59838;52.152;5.436;2023-08-06T08:02:32;100651.47;;;15.85;100.00
71970;BME280;59838;52.152;5.436;2023-08-06T08:04:59;100650.22;;;15.87;100.00
71970;BME280;59838;52.152;5.436;2023-08-06T08:07:25;100658.88;;;15.88;100.00
71970;BME280;59838;52.152;5.436;2023-08-06T08:09:54;100654.88;;;15.85;100.00
71970;BME280;59838;52.152;5.436;2023-08-06T08:12:21;100653.41;;;15.89;100.00
71970;BME280;59838;52.152;5.436;2023-08-06T08:14:47;100660.25;;;15.90;100.00
71970;BME280;59838;52.152;5.436;2023-08-06T08:17:14;100657.63;;;15.90;100.00
71970;BME280;59838;52.152;5.436;2023-08-06T08:19:40;100665.47;;;15.90;100.00
71970;BME280;59838;52.152;5.436;2023-08-06T08:22:07;100659.78;;;15.94;100.00
71970;BME280;59838;52.152;5.436;2023-08-06T08:24:34;100658.22;;;15.93;100.00
71970;BME280;59838;52.152;5.436;2023-08-06T08:27:00;100659.72;;;16.00;100.00
71970;BME280;59838;52.152;5.436;2023-08-06T08:29:27;100659.03;;;16.05;100.00
71970;BME280;59838;52.152;5.436;2023-08-06T08:31:53;100663.63;;;16.09;100.00
71970;BME280;59838;52.152;5.436;2023-08-06T08:34:20;100661.50;;;16.18;100.00
71970;BME280;59838;52.152;5.436;2023-08-06T08:36:47;100667.09;;;16.22;100.00
71970;BME280;59838;52.152;5.436;2023-08-06T08:39:13;100670.28;;;16.24;100.00
71970;BME280;59838;52.152;5.436;2023-08-06T08:41:41;100671.88;;;16.25;100.00
71970;BME280;59838;52.152;5.436;2023-08-06T08:44:09;100677.78;;;16.20;100.00
71970;BME280;59838;52.152;5.436;2023-08-06T08:46:40;100675.50;;;16.12;100.00
71970;BME280;59838;52.152;5.436;2023-08-06T08:49:07;100686.72;;;16.01;100.00
71970;BME280;59838;52.152;5.436;2023-08-06T08:51:34;100686.44;;;15.90;100.00
71970;BME280;59838;52.152;5.436;2023-08-06T08:54:06;100684.00;;;15.77;100.00
71970;BME280;59838;52.152;5.436;2023-08-06T08:56:34;100682.69;;;15.68;100.00
71970;BME280;59838;52.152;5.436;2023-08-06T08:59:01;100687.53;;;15.64;100.00
71970;BME280;59838;52.152;5.436;2023-08-06T09:01:28;100684.78;;;15.59;100.00
71970;BME280;59838;52.152;5.436;2023-08-06T09:03:55;100697.50;;;15.56;100.00
71970;BME280;59838;52.152;5.436;2023-08-06T09:06:25;100695.97;;;15.48;100.00
71970;BME280;59838;52.152;5.436;2023-08-06T09:09:01;100695.25;;;15.41;100.00
71970;BME280;59838;52.152;5.436;2023-08-06T09:11:37;100698.81;;;15.28;100.00
71970;BME280;59838;52.152;5.436;2023-08-06T09:14:07;100703.91;;;15.23;100.00
71970;BME280;59838;52.152;5.436;2023-08-06T09:16:35;100707.31;;;15.23;100.00
71970;BME280;59838;52.152;5.436;2023-08-06T09:19:12;100714.94;;;15.25;100.00
71970;BME280;59838;52.152;5.436;2023-08-06T09:21:40;100724.63;;;15.24;100.00
71970;BME280;59838;52.152;5.436;2023-08-06T09:24:08;100720.97;;;15.25;100.00
71970;BME280;59838;52.152;5.436;2023-08-06T09:26:44;100729.69;;;15.19;100.00
71970;BME280;59838;52.152;5.436;2023-08-06T09:29:11;100723.88;;;15.17;100.00
71970;BME280;59838;52.152;5.436;2023-08-06T09:31:42;100729.75;;;15.12;100.00
71970;BME280;59838;52.152;5.436;2023-08-06T09:34:19;100729.53;;;15.14;100.00
71970;BME280;59838;52.152;5.436;2023-08-06T09:36:47;100724.50;;;15.12;100.00
71970;BME280;59838;52.152;5.436;2023-08-06T09:39:15;100738.63;;;15.11;100.00
71970;BME280;59838;52.152;5.436;2023-08-06T09:41:43;100733.56;;;15.16;100.00
71970;BME280;59838;52.152;5.436;2023-08-06T09:44:18;100739.16;;;15.20;100.00
71970;BME280;59838;52.152;5.436;2023-08-06T09:46:49;100732.47;;;15.24;100.00
71970;BME280;59838;52.152;5.436;2023-08-06T09:49:18;100735.47;;;15.28;100.00
71970;BME280;59838;52.152;5.436;2023-08-06T09:51:48;100741.06;;;15.31;100.00
71970;BME280;59838;52.152;5.436;2023-08-06T09:54:18;100750.75;;;15.31;100.00
71970;BME280;59838;52.152;5.436;2023-08-06T09:56:54;100751.53;;;15.31;100.00
71970;BME280;59838;52.152;5.436;2023-08-06T09:59:22;100754.34;;;15.30;100.00
71970;BME280;59838;52.152;5.436;2023-08-06T10:01:48;100742.06;;;15.30;100.00
71970;BME280;59838;52.152;5.436;2023-08-06T10:04:15;100758.59;;;15.31;100.00
71970;BME280;59838;52.152;5.436;2023-08-06T10:06:49;100758.59;;;15.31;100.00
71970;BME280;59838;52.152;5.436;2023-08-06T10:09:16;100760.78;;;15.34;100.00
71970;BME280;59838;52.152;5.436;2023-08-06T10:11:50;100759.75;;;15.35;100.00
71970;BME280;59838;52.152;5.436;2023-08-06T10:14:31;100771.19;;;15.41;100.00
71970;BME280;59838;52.152;5.436;2023-08-06T10:16:59;100768.28;;;15.49;100.00
71970;BME280;59838;52.152;5.436;2023-08-06T10:19:27;100768.84;;;15.51;100.00
71970;BME280;59838;52.152;5.436;2023-08-06T10:22:10;100764.19;;;15.53;100.00
71970;BME280;59838;52.152;5.436;2023-08-06T10:24:50;100767.78;;;15.59;100.00
71970;BME280;59838;52.152;5.436;2023-08-06T10:27:40;100770.41;;;15.59;100.00
71970;BME280;59838;52.152;5.436;2023-08-06T10:30:26;100769.81;;;15.57;100.00
71970;BME280;59838;52.152;5.436;2023-08-06T10:33:00;100779.03;;;15.59;100.00
71970;BME280;59838;52.152;5.436;2023-08-06T10:35:44;100767.78;;;15.59;100.00
71970;BME280;59838;52.152;5.436;2023-08-06T10:38:15;100770.31;;;15.65;100.00
71970;BME280;59838;52.152;5.436;2023-08-06T10:43:31;100773.66;;;15.79;100.00
71970;BME280;59838;52.152;5.436;2023-08-06T10:46:00;100773.03;;;15.77;100.00
71970;BME280;59838;52.152;5.436;2023-08-06T10:48:34;100783.88;;;15.81;100.00
71970;BME280;59838;52.152;5.436;2023-08-06T10:51:02;100783.63;;;15.89;100.00
71970;BME280;59838;52.152;5.436;2023-08-06T10:53:29;100785.19;;;15.90;100.00
71970;BME280;59838;52.152;5.436;2023-08-06T10:55:59;100785.84;;;15.85;100.00
71970;BME280;59838;52.152;5.436;2023-08-06T10:58:36;100782.50;;;15.78;100.00
71970;BME280;59838;52.152;5.436;2023-08-06T11:01:02;100784.97;;;15.73;100.00
71970;BME280;59838;52.152;5.436;2023-08-06T11:03:29;100788.81;;;15.70;100.00
71970;BME280;59838;52.152;5.436;2023-08-06T11:05:56;100792.44;;;15.69;100.00
71970;BME280;59838;52.152;5.436;2023-08-06T11:08:26;100790.94;;;15.80;100.00
71970;BME280;59838;52.152;5.436;2023-08-06T11:10:53;100800.78;;;15.85;100.00
71970;BME280;59838;52.152;5.436;2023-08-06T11:13:29;100789.66;;;15.89;100.00
71970;BME280;59838;52.152;5.436;2023-08-06T11:15:56;100799.78;;;15.86;100.00
71970;BME280;59838;52.152;5.436;2023-08-06T11:18:22;100805.44;;;15.83;100.00
71970;BME280;59838;52.152;5.436;2023-08-06T11:20:49;100804.63;;;15.82;100.00
71970;BME280;59838;52.152;5.436;2023-08-06T11:23:15;100811.13;;;15.80;100.00
71970;BME280;59838;52.152;5.436;2023-08-06T11:25:45;100813.16;;;15.78;100.00
71970;BME280;59838;52.152;5.436;2023-08-06T11:28:12;100802.03;;;15.76;100.00
71970;BME280;59838;52.152;5.436;2023-08-06T11:30:40;100807.78;;;15.66;100.00
71970;BME280;59838;52.152;5.436;2023-08-06T11:33:07;100814.50;;;15.62;100.00
71970;BME280;59838;52.152;5.436;2023-08-06T11:35:36;100819.31;;;15.58;100.00
71970;BME280;59838;52.152;5.436;2023-08-06T11:38:04;100816.97;;;15.57;100.00
71970;BME280;59838;52.152;5.436;2023-08-06T11:40:31;100824.63;;;15.51;100.00
71970;BME280;59838;52.152;5.436;2023-08-06T11:42:58;100824.69;;;15.45;100.00
71970;BME280;59838;52.152;5.436;2023-08-06T11:45:25;100820.53;;;15.37;100.00
71970;BME280;59838;52.152;5.436;2023-08-06T11:47:52;100824.38;;;15.34;100.00
71970;BME280;59838;52.152;5.436;2023-08-06T11:50:26;100837.31;;;15.29;100.00
71970;BME280;59838;52.152;5.436;2023-08-06T11:52:57;100825.28;;;15.22;100.00
71970;BME280;59838;52.152;5.436;2023-08-06T11:55:25;100831.16;;;15.17;100.00
71970;BME280;59838;52.152;5.436;2023-08-06T11:57:52;100830.22;;;15.11;100.00
71970;BME280;59838;52.152;5.436;2023-08-06T12:00:18;100828.84;;;15.02;100.00
71970;BME280;59838;52.152;5.436;2023-08-06T12:02:46;100827.66;;;14.98;100.00
71970;BME280;59838;52.152;5.436;2023-08-06T12:07:45;100832.53;;;14.94;100.00
71970;BME280;59838;52.152;5.436;2023-08-06T12:10:13;100833.94;;;14.97;100.00
71970;BME280;59838;52.152;5.436;2023-08-06T12:12:40;100838.94;;;14.98;100.00
71970;BME280;59838;52.152;5.436;2023-08-06T12:15:09;100831.69;;;15.01;100.00
71970;BME280;59838;52.152;5.436;2023-08-06T12:17:36;100835.91;;;15.02;100.00
71970;BME280;59838;52.152;5.436;2023-08-06T12:20:04;100844.13;;;15.05;100.00
71970;BME280;59838;52.152;5.436;2023-08-06T12:22:32;100844.50;;;15.09;100.00
71970;BME280;59838;52.152;5.436;2023-08-06T12:25:02;100851.94;;;15.12;100.00
71970;BME280;59838;52.152;5.436;2023-08-06T12:27:30;100848.69;;;15.16;100.00
71970;BME280;59838;52.152;5.436;2023-08-06T12:29:56;100852.69;;;15.19;100.00
71970;BME280;59838;52.152;5.436;2023-08-06T12:32:23;100852.47;;;15.21;100.00
71970;BME280;59838;52.152;5.436;2023-08-06T12:34:49;100861.50;;;15.25;100.00
71970;BME280;59838;52.152;5.436;2023-08-06T12:37:19;100858.03;;;15.31;100.00
71970;BME280;59838;52.152;5.436;2023-08-06T12:39:45;100862.19;;;15.39;100.00
71970;BME280;59838;52.152;5.436;2023-08-06T12:42:12;100864.19;;;15.43;100.00
71970;BME280;59838;52.152;5.436;2023-08-06T12:44:39;100875.47;;;15.44;100.00
71970;BME280;59838;52.152;5.436;2023-08-06T12:47:06;100873.84;;;15.43;100.00
71970;BME280;59838;52.152;5.436;2023-08-06T12:49:33;100877.09;;;15.38;100.00
71970;BME280;59838;52.152;5.436;2023-08-06T12:52:00;100877.25;;;15.43;100.00